Aviation Digital Data Service (ADDS)

Output produced by METARs form (2021 UTC 17 November 2019)
found at http://www.aviationweather.gov/metar/data/
 
METAR text: ZGKL 172000Z 06006MPS 5000 -RA BR FEW006 SCT026 OVC043 14/13 Q1021 NOSIG
Conditions at: ZGKL (GUILIN , CN) observed 2000 UTC 17 November 2019
Temperature: 14.0°C (57°F)
Dewpoint: 13.0°C (55°F) [RH = 94%]
Pressure (altimeter): 30.15 inches Hg (1021.0 mb)
Winds: from the ENE (60 degrees) at 14 MPH (12 knots; 6.2 m/s)
Visibility: 3 miles ( 5 km)
Ceiling: 4300 feet AGL
Clouds: few clouds at 600 feet AGL
scattered clouds at 2600 feet AGL
overcast cloud deck at 4300 feet AGL
Weather: -RA BR  (light rain, mist)

METAR text: ZGKL 171900Z 04005MPS 5000 -RA BR FEW006 SCT026 OVC043 15/14 Q1020 NOSIG
Conditions at: ZGKL (GUILIN , CN) observed 1900 UTC 17 November 2019
Temperature: 15.0°C (59°F)
Dewpoint: 14.0°C (57°F) [RH = 94%]
Pressure (altimeter): 30.12 inches Hg (1020.0 mb)
Winds: from the NE (40 degrees) at 12 MPH (10 knots; 5.1 m/s)
Visibility: 3 miles ( 5 km)
Ceiling: 4300 feet AGL
Clouds: few clouds at 600 feet AGL
scattered clouds at 2600 feet AGL
overcast cloud deck at 4300 feet AGL
Weather: -RA BR  (light rain, mist)

METAR text: ZGKL 171800Z 06008MPS 5000 -RA BR SCT033 OVC050 16/15 Q1019 NOSIG
Conditions at: ZGKL (GUILIN , CN) observed 1800 UTC 17 November 2019
Temperature: 16.0°C (61°F)
Dewpoint: 15.0°C (59°F) [RH = 94%]
Pressure (altimeter): 30.09 inches Hg (1019.0 mb)
Winds: from the ENE (60 degrees) at 18 MPH (16 knots; 8.2 m/s)
Visibility: 3 miles ( 5 km)
Ceiling: 5000 feet AGL
Clouds: scattered clouds at 3300 feet AGL
overcast cloud deck at 5000 feet AGL
Weather: -RA BR  (light rain, mist)

METAR text: ZGKL 171700Z 04002MPS 3000 BR SCT040 OVC053 20/19 Q1017 NOSIG
Conditions at: ZGKL (GUILIN , CN) observed 1700 UTC 17 November 2019
Temperature: 20.0°C (68°F)
Dewpoint: 19.0°C (66°F) [RH = 94%]
Pressure (altimeter): 30.03 inches Hg (1017.0 mb)
Winds: from the NE (40 degrees) at 5 MPH (4 knots; 2.1 m/s)
Visibility: 1.86 miles (2.99 km)
Ceiling: 5300 feet AGL
Clouds: scattered clouds at 4000 feet AGL
overcast cloud deck at 5300 feet AGL
Weather: BR  (mist)

METAR text: ZGKL 171600Z VRB01MPS 2600 BR SCT040 OVC053 20/19 Q1017 NOSIG
Conditions at: ZGKL (GUILIN , CN) observed 1600 UTC 17 November 2019
Temperature: 20.0°C (68°F)
Dewpoint: 19.0°C (66°F) [RH = 94%]
Pressure (altimeter): 30.03 inches Hg (1017.0 mb)
Winds: variable direction winds at 2 MPH (2 knots; 1.0 m/s)
Visibility: 1.62 miles (2.61 km)
Ceiling: 5300 feet AGL
Clouds: scattered clouds at 4000 feet AGL
overcast cloud deck at 5300 feet AGL
Weather: BR  (mist)

METAR text: ZGKL 171500Z VRB01MPS 2500 BR SCT040 OVC053 20/19 Q1017 NOSIG
Conditions at: ZGKL (GUILIN , CN) observed 1500 UTC 17 November 2019
Temperature: 20.0°C (68°F)
Dewpoint: 19.0°C (66°F) [RH = 94%]
Pressure (altimeter): 30.03 inches Hg (1017.0 mb)
Winds: variable direction winds at 2 MPH (2 knots; 1.0 m/s)
Visibility: 1.55 miles (2.49 km)
Ceiling: 5300 feet AGL
Clouds: scattered clouds at 4000 feet AGL
overcast cloud deck at 5300 feet AGL
Weather: BR  (mist)

METAR text: ZGKL 171400Z 33002MPS 2200 BR SCT033 OVC050 20/19 Q1017 NOSIG
Conditions at: ZGKL (GUILIN , CN) observed 1400 UTC 17 November 2019
Temperature: 20.0°C (68°F)
Dewpoint: 19.0°C (66°F) [RH = 94%]
Pressure (altimeter): 30.03 inches Hg (1017.0 mb)
Winds: from the NNW (330 degrees) at 5 MPH (4 knots; 2.1 m/s)
Visibility: 1.37 miles (2.20 km)
Ceiling: 5000 feet AGL
Clouds: scattered clouds at 3300 feet AGL
overcast cloud deck at 5000 feet AGL
Weather: BR  (mist)

METAR text: ZGKL 171300Z 34002MPS 2200 BR SCT033 OVC050 20/19 Q1016 NOSIG
Conditions at: ZGKL (GUILIN , CN) observed 1300 UTC 17 November 2019
Temperature: 20.0°C (68°F)
Dewpoint: 19.0°C (66°F) [RH = 94%]
Pressure (altimeter): 30.00 inches Hg (1016.0 mb)
Winds: from the NNW (340 degrees) at 5 MPH (4 knots; 2.1 m/s)
Visibility: 1.37 miles (2.20 km)
Ceiling: 5000 feet AGL
Clouds: scattered clouds at 3300 feet AGL
overcast cloud deck at 5000 feet AGL
Weather: BR  (mist)

METAR text: ZGKL 171200Z 32002MPS 280V340 2200 BR BKN033 OVC050 20/19 Q1016 NOSIG
Conditions at: ZGKL (GUILIN , CN) observed 1200 UTC 17 November 2019
Temperature: 20.0°C (68°F)
Dewpoint: 19.0°C (66°F) [RH = 94%]
Pressure (altimeter): 30.00 inches Hg (1016.0 mb)
Winds: from the NW (320 degrees) at 5 MPH (4 knots; 2.1 m/s)
Visibility: 1.37 miles (2.20 km)
Ceiling: 3300 feet AGL
Clouds: broken clouds at 3300 feet AGL
overcast cloud deck at 5000 feet AGL
Weather: BR  (mist)

METAR text: ZGKL 171100Z 34002MPS 310V010 2500 BR BKN026 OVC050 20/19 Q1015 NOSIG
Conditions at: ZGKL (GUILIN , CN) observed 1100 UTC 17 November 2019
Temperature: 20.0°C (68°F)
Dewpoint: 19.0°C (66°F) [RH = 94%]
Pressure (altimeter): 29.97 inches Hg (1015.0 mb)
Winds: from the NNW (340 degrees) at 5 MPH (4 knots; 2.1 m/s)
Visibility: 1.55 miles (2.49 km)
Ceiling: 2600 feet AGL
Clouds: broken clouds at 2600 feet AGL
overcast cloud deck at 5000 feet AGL
Weather: BR  (mist)

METAR text: ZGKL 171000Z 32002MPS 2200 BR BKN026 OVC040 20/19 Q1014 NOSIG
Conditions at: ZGKL (GUILIN , CN) observed 1000 UTC 17 November 2019
Temperature: 20.0°C (68°F)
Dewpoint: 19.0°C (66°F) [RH = 94%]
Pressure (altimeter): 29.94 inches Hg (1014.0 mb)
Winds: from the NW (320 degrees) at 5 MPH (4 knots; 2.1 m/s)
Visibility: 1.37 miles (2.20 km)
Ceiling: 2600 feet AGL
Clouds: broken clouds at 2600 feet AGL
overcast cloud deck at 4000 feet AGL
Weather: BR  (mist)

METAR text: ZGKL 170900Z 35002MPS 2200 BR SCT023 OVC040 21/19 Q1013 NOSIG
Conditions at: ZGKL (GUILIN , CN) observed 0900 UTC 17 November 2019
Temperature: 21.0°C (70°F)
Dewpoint: 19.0°C (66°F) [RH = 88%]
Pressure (altimeter): 29.91 inches Hg (1013.0 mb)
Winds: from the N (350 degrees) at 5 MPH (4 knots; 2.1 m/s)
Visibility: 1.37 miles (2.20 km)
Ceiling: 4000 feet AGL
Clouds: scattered clouds at 2300 feet AGL
overcast cloud deck at 4000 feet AGL
Weather: BR  (mist)

METAR text: ZGKL 170800Z 36002MPS 2500 BR OVC040 21/20 Q1013 NOSIG
Conditions at: ZGKL (GUILIN , CN) observed 0800 UTC 17 November 2019
Temperature: 21.0°C (70°F)
Dewpoint: 20.0°C (68°F) [RH = 94%]
Pressure (altimeter): 29.91 inches Hg (1013.0 mb)
Winds: from the N (360 degrees) at 5 MPH (4 knots; 2.1 m/s)
Visibility: 1.55 miles (2.49 km)
Ceiling: 4000 feet AGL
Clouds: overcast cloud deck at 4000 feet AGL
Weather: BR  (mist)

METAR text: ZGKL 170700Z 36002MPS 2500 BR OVC040 22/20 Q1012 BECMG FM0900 3000
Conditions at: ZGKL (GUILIN , CN) observed 0700 UTC 17 November 2019
Temperature: 22.0°C (72°F)
Dewpoint: 20.0°C (68°F) [RH = 88%]
Pressure (altimeter): 29.88 inches Hg (1012.0 mb)
Winds: from the N (360 degrees) at 5 MPH (4 knots; 2.1 m/s)
Visibility: 1.55 miles (2.49 km)
Ceiling: 4000 feet AGL
Clouds: overcast cloud deck at 4000 feet AGL
Weather: BR  (mist)

METAR text: ZGKL 170600Z 01002MPS 2000 BR SCT026 OVC040 21/20 Q1013 NOSIG
Conditions at: ZGKL (GUILIN , CN) observed 0600 UTC 17 November 2019
Temperature: 21.0°C (70°F)
Dewpoint: 20.0°C (68°F) [RH = 94%]
Pressure (altimeter): 29.91 inches Hg (1013.0 mb)
Winds: from the N (10 degrees) at 5 MPH (4 knots; 2.1 m/s)
Visibility: 1.24 miles (2.00 km)
Ceiling: 4000 feet AGL
Clouds: scattered clouds at 2600 feet AGL
overcast cloud deck at 4000 feet AGL
Weather: BR  (mist)

METAR text: ZGKL 170500Z 34002MPS 300V020 2000 BR SCT026 OVC040 21/20 Q1013 NOSIG
Conditions at: ZGKL (GUILIN , CN) observed 0500 UTC 17 November 2019
Temperature: 21.0°C (70°F)
Dewpoint: 20.0°C (68°F) [RH = 94%]
Pressure (altimeter): 29.91 inches Hg (1013.0 mb)
Winds: from the NNW (340 degrees) at 5 MPH (4 knots; 2.1 m/s)
Visibility: 1.24 miles (2.00 km)
Ceiling: 4000 feet AGL
Clouds: scattered clouds at 2600 feet AGL
overcast cloud deck at 4000 feet AGL
Weather: BR  (mist)

METAR text: ZGKL 170400Z 32002MPS 290V360 1600 BR SCT026 OVC036 20/20 Q1014 NOSIG
Conditions at: ZGKL (GUILIN , CN) observed 0400 UTC 17 November 2019
Temperature: 20.0°C (68°F)
Dewpoint: 20.0°C (68°F) [RH = 100%]
Pressure (altimeter): 29.94 inches Hg (1014.0 mb)
Winds: from the NW (320 degrees) at 5 MPH (4 knots; 2.1 m/s)
Visibility: 0.99 miles (1.59 km)
Ceiling: 3600 feet AGL
Clouds: scattered clouds at 2600 feet AGL
overcast cloud deck at 3600 feet AGL
Weather: BR  (mist)

METAR text: ZGKL 170300Z 36002MPS 1400 R01/1600 -RA BR SCT023 OVC036 20/20 Q1015 BECMG FM0500 3000
Conditions at: ZGKL (GUILIN , CN) observed 0300 UTC 17 November 2019
Temperature: 20.0°C (68°F)
Dewpoint: 20.0°C (68°F) [RH = 100%]
Pressure (altimeter): 29.97 inches Hg (1015.0 mb)
Winds: from the N (360 degrees) at 5 MPH (4 knots; 2.1 m/s)
Visibility: 0.87 miles (1.40 km)
Ceiling: 3600 feet AGL
Clouds: scattered clouds at 2300 feet AGL
overcast cloud deck at 3600 feet AGL
Weather: -RA BR  (light rain, mist)

METAR text: ZGKL 170200Z VRB01MPS 1400 R01/1800 BR SCT030 OVC040 20/19 Q1015 BECMG FM0300 2500
Conditions at: ZGKL (GUILIN , CN) observed 0200 UTC 17 November 2019
Temperature: 20.0°C (68°F)
Dewpoint: 19.0°C (66°F) [RH = 94%]
Pressure (altimeter): 29.97 inches Hg (1015.0 mb)
Winds: variable direction winds at 2 MPH (2 knots; 1.0 m/s)
Visibility: 0.87 miles (1.40 km)
Ceiling: 4000 feet AGL
Clouds: scattered clouds at 3000 feet AGL
overcast cloud deck at 4000 feet AGL
Weather: BR  (mist)

METAR text: ZGKL 170100Z VRB01MPS 1200 R01/1400 BR SCT030 OVC040 19/19 Q1015 BECMG FM0300 3000
Conditions at: ZGKL (GUILIN , CN) observed 0100 UTC 17 November 2019
Temperature: 19.0°C (66°F)
Dewpoint: 19.0°C (66°F) [RH = 100%]
Pressure (altimeter): 29.97 inches Hg (1015.0 mb)
Winds: variable direction winds at 2 MPH (2 knots; 1.0 m/s)
Visibility: 0.75 miles (1.21 km)
Ceiling: 4000 feet AGL
Clouds: scattered clouds at 3000 feet AGL
overcast cloud deck at 4000 feet AGL
Weather: BR  (mist)

METAR text: ZGKL 170000Z VRB01MPS 1500 R01/1400 BR FEW030 OVC040 19/19 Q1014 BECMG FM0200 3000
Conditions at: ZGKL (GUILIN , CN) observed 0000 UTC 17 November 2019
Temperature: 19.0°C (66°F)
Dewpoint: 19.0°C (66°F) [RH = 100%]
Pressure (altimeter): 29.94 inches Hg (1014.0 mb)
Winds: variable direction winds at 2 MPH (2 knots; 1.0 m/s)
Visibility: 0.93 miles (1.50 km)
Ceiling: 4000 feet AGL
Clouds: few clouds at 3000 feet AGL
overcast cloud deck at 4000 feet AGL
Weather: BR  (mist)

METAR text: ZGKL 162300Z VRB01MPS 1700 BR SCT036 OVC053 19/19 Q1014 BECMG FM0100 3500
Conditions at: ZGKL (GUILIN , CN) observed 2300 UTC 16 November 2019
Temperature: 19.0°C (66°F)
Dewpoint: 19.0°C (66°F) [RH = 100%]
Pressure (altimeter): 29.94 inches Hg (1014.0 mb)
Winds: variable direction winds at 2 MPH (2 knots; 1.0 m/s)
Visibility: 1.06 miles (1.71 km)
Ceiling: 5300 feet AGL
Clouds: scattered clouds at 3600 feet AGL
overcast cloud deck at 5300 feet AGL
Weather: BR  (mist)

METAR text: ZGKL 162200Z 00000MPS 2300 BR SCT033 OVC050 19/19 Q1013 NOSIG
Conditions at: ZGKL (GUILIN , CN) observed 2200 UTC 16 November 2019
Temperature: 19.0°C (66°F)
Dewpoint: 19.0°C (66°F) [RH = 100%]
Pressure (altimeter): 29.91 inches Hg (1013.0 mb)
Winds: calm
Visibility: 1.43 miles (2.30 km)
Ceiling: 5000 feet AGL
Clouds: scattered clouds at 3300 feet AGL
overcast cloud deck at 5000 feet AGL
Weather: BR  (mist)

METAR text: ZGKL 162100Z 32001MPS 1800 -RA BR SCT033 OVC050 19/19 Q1012 NOSIG
Conditions at: ZGKL (GUILIN , CN) observed 2100 UTC 16 November 2019
Temperature: 19.0°C (66°F)
Dewpoint: 19.0°C (66°F) [RH = 100%]
Pressure (altimeter): 29.88 inches Hg (1012.0 mb)
Winds: from the NW (320 degrees) at 2 MPH (2 knots; 1.0 m/s)
Visibility: 1.12 miles (1.80 km)
Ceiling: 5000 feet AGL
Clouds: scattered clouds at 3300 feet AGL
overcast cloud deck at 5000 feet AGL
Weather: -RA BR  (light rain, mist)

METAR text: ZGKL 162000Z 00000MPS 2000 BR SCT033 OVC050 19/19 Q1012 NOSIG
Conditions at: ZGKL (GUILIN , CN) observed 2000 UTC 16 November 2019
Temperature: 19.0°C (66°F)
Dewpoint: 19.0°C (66°F) [RH = 100%]
Pressure (altimeter): 29.88 inches Hg (1012.0 mb)
Winds: calm
Visibility: 1.24 miles (2.00 km)
Ceiling: 5000 feet AGL
Clouds: scattered clouds at 3300 feet AGL
overcast cloud deck at 5000 feet AGL
Weather: BR  (mist)

METAR text: ZGKL 161900Z VRB01MPS 2200 -RA BR SCT033 OVC050 19/18 Q1013 NOSIG
Conditions at: ZGKL (GUILIN , CN) observed 1900 UTC 16 November 2019
Temperature: 19.0°C (66°F)
Dewpoint: 18.0°C (64°F) [RH = 94%]
Pressure (altimeter): 29.91 inches Hg (1013.0 mb)
Winds: variable direction winds at 2 MPH (2 knots; 1.0 m/s)
Visibility: 1.37 miles (2.20 km)
Ceiling: 5000 feet AGL
Clouds: scattered clouds at 3300 feet AGL
overcast cloud deck at 5000 feet AGL
Weather: -RA BR  (light rain, mist)

METAR text: ZGKL 161800Z VRB02MPS 2800 BR SCT033 OVC050 19/19 Q1013 NOSIG
Conditions at: ZGKL (GUILIN , CN) observed 1800 UTC 16 November 2019
Temperature: 19.0°C (66°F)
Dewpoint: 19.0°C (66°F) [RH = 100%]
Pressure (altimeter): 29.91 inches Hg (1013.0 mb)
Winds: variable direction winds at 5 MPH (4 knots; 2.1 m/s)
Visibility: 1.74 miles (2.80 km)
Ceiling: 5000 feet AGL
Clouds: scattered clouds at 3300 feet AGL
overcast cloud deck at 5000 feet AGL
Weather: BR  (mist)

METAR text: ZGKL 161700Z VRB01MPS 3000 -RA BR SCT033 OVC050 19/18 Q1013 NOSIG
Conditions at: ZGKL (GUILIN , CN) observed 1700 UTC 16 November 2019
Temperature: 19.0°C (66°F)
Dewpoint: 18.0°C (64°F) [RH = 94%]
Pressure (altimeter): 29.91 inches Hg (1013.0 mb)
Winds: variable direction winds at 2 MPH (2 knots; 1.0 m/s)
Visibility: 1.86 miles (2.99 km)
Ceiling: 5000 feet AGL
Clouds: scattered clouds at 3300 feet AGL
overcast cloud deck at 5000 feet AGL
Weather: -RA BR  (light rain, mist)

METAR text: ZGKL 161600Z 29001MPS 3000 BR SCT040 OVC060 19/18 Q1013 NOSIG
Conditions at: ZGKL (GUILIN , CN) observed 1600 UTC 16 November 2019
Temperature: 19.0°C (66°F)
Dewpoint: 18.0°C (64°F) [RH = 94%]
Pressure (altimeter): 29.91 inches Hg (1013.0 mb)
Winds: from the WNW (290 degrees) at 2 MPH (2 knots; 1.0 m/s)
Visibility: 1.86 miles (2.99 km)
Ceiling: 6000 feet AGL
Clouds: scattered clouds at 4000 feet AGL
overcast cloud deck at 6000 feet AGL
Weather: BR  (mist)

METAR text: ZGKL 161500Z VRB01MPS 3000 BR SCT033 OVC053 19/18 Q1013 NOSIG
Conditions at: ZGKL (GUILIN , CN) observed 1500 UTC 16 November 2019
Temperature: 19.0°C (66°F)
Dewpoint: 18.0°C (64°F) [RH = 94%]
Pressure (altimeter): 29.91 inches Hg (1013.0 mb)
Winds: variable direction winds at 2 MPH (2 knots; 1.0 m/s)
Visibility: 1.86 miles (2.99 km)
Ceiling: 5300 feet AGL
Clouds: scattered clouds at 3300 feet AGL
overcast cloud deck at 5300 feet AGL
Weather: BR  (mist)

METAR text: ZGKL 161400Z VRB01MPS 3000 BR SCT033 OVC053 19/18 Q1013 NOSIG
Conditions at: ZGKL (GUILIN , CN) observed 1400 UTC 16 November 2019
Temperature: 19.0°C (66°F)
Dewpoint: 18.0°C (64°F) [RH = 94%]
Pressure (altimeter): 29.91 inches Hg (1013.0 mb)
Winds: variable direction winds at 2 MPH (2 knots; 1.0 m/s)
Visibility: 1.86 miles (2.99 km)
Ceiling: 5300 feet AGL
Clouds: scattered clouds at 3300 feet AGL
overcast cloud deck at 5300 feet AGL
Weather: BR  (mist)

METAR text: ZGKL 161300Z 34001MPS 3000 BR SCT033 OVC053 20/18 Q1012 NOSIG
Conditions at: ZGKL (GUILIN , CN) observed 1300 UTC 16 November 2019
Temperature: 20.0°C (68°F)
Dewpoint: 18.0°C (64°F) [RH = 88%]
Pressure (altimeter): 29.88 inches Hg (1012.0 mb)
Winds: from the NNW (340 degrees) at 2 MPH (2 knots; 1.0 m/s)
Visibility: 1.86 miles (2.99 km)
Ceiling: 5300 feet AGL
Clouds: scattered clouds at 3300 feet AGL
overcast cloud deck at 5300 feet AGL
Weather: BR  (mist)

METAR text: ZGKL 161200Z 33001MPS 3000 BR SCT040 OVC060 20/18 Q1012 NOSIG
Conditions at: ZGKL (GUILIN , CN) observed 1200 UTC 16 November 2019
Temperature: 20.0°C (68°F)
Dewpoint: 18.0°C (64°F) [RH = 88%]
Pressure (altimeter): 29.88 inches Hg (1012.0 mb)
Winds: from the NNW (330 degrees) at 2 MPH (2 knots; 1.0 m/s)
Visibility: 1.86 miles (2.99 km)
Ceiling: 6000 feet AGL
Clouds: scattered clouds at 4000 feet AGL
overcast cloud deck at 6000 feet AGL
Weather: BR  (mist)

METAR text: ZGKL 161100Z 32002MPS 2800 BR SCT036 OVC060 20/18 Q1012 BECMG FM1200 3500
Conditions at: ZGKL (GUILIN , CN) observed 1100 UTC 16 November 2019
Temperature: 20.0°C (68°F)
Dewpoint: 18.0°C (64°F) [RH = 88%]
Pressure (altimeter): 29.88 inches Hg (1012.0 mb)
Winds: from the NW (320 degrees) at 5 MPH (4 knots; 2.1 m/s)
Visibility: 1.74 miles (2.80 km)
Ceiling: 6000 feet AGL
Clouds: scattered clouds at 3600 feet AGL
overcast cloud deck at 6000 feet AGL
Weather: BR  (mist)

METAR text: ZGKL 161000Z 35002MPS 280V030 2800 BR SCT036 OVC060 21/18 Q1011 BECMG FM1200 3500
Conditions at: ZGKL (GUILIN , CN) observed 1000 UTC 16 November 2019
Temperature: 21.0°C (70°F)
Dewpoint: 18.0°C (64°F) [RH = 83%]
Pressure (altimeter): 29.85 inches Hg (1011.0 mb)
Winds: from the N (350 degrees) at 5 MPH (4 knots; 2.1 m/s)
Visibility: 1.74 miles (2.80 km)
Ceiling: 6000 feet AGL
Clouds: scattered clouds at 3600 feet AGL
overcast cloud deck at 6000 feet AGL
Weather: BR  (mist)

METAR text: ZGKL 160900Z VRB01MPS 3000 BR SCT040 OVC066 21/18 Q1011 BECMG FM1000 2500
Conditions at: ZGKL (GUILIN , CN) observed 0900 UTC 16 November 2019
Temperature: 21.0°C (70°F)
Dewpoint: 18.0°C (64°F) [RH = 83%]
Pressure (altimeter): 29.85 inches Hg (1011.0 mb)
Winds: variable direction winds at 2 MPH (2 knots; 1.0 m/s)
Visibility: 1.86 miles (2.99 km)
Ceiling: 6600 feet AGL
Clouds: scattered clouds at 4000 feet AGL
overcast cloud deck at 6600 feet AGL
Weather: BR  (mist)

Forecast for: ZGKL (GUILIN , CN)
Text: TAF ZGKL 171515Z 1718/1818 VRB01MPS 2000 -RA BR SCT030 OVC040 TX18/1718Z TN12/1817Z
Forecast period: 1800 to 2000 UTC 17 November 2019
Forecast type: FROM: standard forecast or significant change
Winds: variable direction winds at 2 MPH (2 knots; 1.0 m/s)
Visibility: 1.24 miles (2.00 km)
Ceiling: 4000 feet AGL
Clouds: scattered clouds at 3000 feet AGL
overcast cloud deck at 4000 feet AGL
Weather: -RA BR  (light rain, mist)
Text: TEMPO 1718/1724 RA
Forecast period: 1800 UTC 17 November 2019 to 0000 UTC 18 November 2019
Forecast type: TEMPORARY: The following changes expected for less than half the time period
Visibility: missing
Ceiling: unknown
Clouds: missing
Weather: RA  (moderate rain)
Text: BECMG 1720/1721 05007MPS 6000
Forecast period: 2000 UTC 17 November 2019 to 1800 UTC 18 November 2019
Forecast type: BECOMING: Conditions expected to become as follows by 2100 UTC 17 November 2019
Winds: from the NE (50 degrees) at 16 MPH (14 knots; 7.2 m/s)
Visibility: 4 miles (6 km)
Ceiling: 4000 feet AGL
Clouds: scattered clouds at 3000 feet AGL
overcast cloud deck at 4000 feet AGL
Weather: -RA BR  (light rain, mist)